Time;durP1;ratioP1;P1;durP2;ratioP2;P2;SDS_P1;SDS_P2;PMS_P1;PMS_P2;Temp;Humidity;BMP_temperature;BMP_pressure;BME280_temperature;BME280_humidity;BME280_pressure;Samples;Min_cycle;Max_cycle;Signal;HPM_P1;HPM_P2
2022/10/04 00:01:43;;;;;;;8.32;3.45;;;;;;;4.95;100.00;99549.03;5035607;28;20032;-62
2022/10/04 00:04:38;;;;;;;6.70;4.03;;;;;;;4.97;100.00;99550.56;5032239;28;20120;-61
2022/10/04 00:07:17;;;;;;;8.40;3.90;;;;;;;4.99;100.00;99551.25;5030959;28;20037;-61
2022/10/04 00:09:59;;;;;;;7.78;3.80;;;;;;;5.10;100.00;99558.25;5031749;28;20358;-61
2022/10/04 00:12:30;;;;;;;5.50;3.50;;;;;;;4.90;100.00;99560.22;5030337;28;20053;-61
2022/10/04 00:15:03;;;;;;;5.43;3.35;;;;;;;4.79;100.00;99544.31;5028702;28;20065;-60
2022/10/04 00:17:34;;;;;;;5.88;3.45;;;;;;;4.78;100.00;99548.00;5024119;28;20071;-63
2022/10/04 00:20:00;;;;;;;13.57;3.75;;;;;;;4.79;100.00;99536.25;5020740;28;20025;-61
2022/10/04 00:22:30;;;;;;;7.65;3.53;;;;;;;4.74;100.00;99547.44;5025494;28;20029;-61
2022/10/04 00:25:00;;;;;;;5.55;3.30;;;;;;;4.89;100.00;99545.09;5020386;28;21027;-60
2022/10/04 00:27:27;;;;;;;8.82;3.53;;;;;;;4.80;100.00;99552.22;5033125;28;20036;-60
2022/10/04 00:30:02;;;;;;;5.78;3.38;;;;;;;4.81;100.00;99555.72;5035241;28;20036;-61
2022/10/04 00:32:38;;;;;;;7.40;3.20;;;;;;;4.83;100.00;99556.44;5030179;28;20032;-61
2022/10/04 00:35:23;;;;;;;7.97;3.40;;;;;;;4.76;100.00;99553.47;5034624;28;20144;-61
2022/10/04 00:38:06;;;;;;;6.82;3.17;;;;;;;4.70;100.00;99558.59;5031070;28;20116;-63
2022/10/04 00:40:48;;;;;;;5.32;3.33;;;;;;;4.59;100.00;99552.44;5037281;28;20017;-61
2022/10/04 00:43:35;;;;;;;5.35;3.20;;;;;;;4.62;100.00;99548.63;5033760;28;20056;-61
2022/10/04 00:46:12;;;;;;;6.03;3.20;;;;;;;4.68;100.00;99542.66;5029585;28;20030;-61
2022/10/04 00:48:51;;;;;;;9.55;3.30;;;;;;;4.56;100.00;99542.00;5028917;28;20129;-61
2022/10/04 00:51:37;;;;;;;6.63;3.55;;;;;;;4.63;100.00;99544.09;5044622;28;20045;-60
2022/10/04 00:54:10;;;;;;;6.53;3.33;;;;;;;4.61;100.00;99541.56;5030651;28;20037;-60
2022/10/04 00:56:59;;;;;;;6.28;3.08;;;;;;;4.55;100.00;99540.31;5032766;28;20084;-60
2022/10/04 00:59:33;;;;;;;7.47;3.17;;;;;;;4.48;100.00;99544.59;5025920;28;20025;-64
2022/10/04 01:02:20;;;;;;;5.68;2.88;;;;;;;4.60;100.00;99535.34;5024390;28;20473;-61
2022/10/04 01:05:00;;;;;;;6.05;3.30;;;;;;;4.73;100.00;99524.31;5017975;28;20040;-61
2022/10/04 01:07:45;;;;;;;8.48;3.55;;;;;;;4.69;100.00;99532.78;5022040;28;20030;-61
2022/10/04 01:10:18;;;;;;;6.78;3.38;;;;;;;4.48;100.00;99525.84;5029933;28;20018;-62
2022/10/04 01:12:48;;;;;;;7.82;4.07;;;;;;;4.45;100.00;99515.38;5031142;28;20116;-62
2022/10/04 01:15:37;;;;;;;9.35;3.80;;;;;;;4.37;100.00;99528.66;5029516;28;20018;-62
2022/10/04 01:18:18;;;;;;;8.68;4.40;;;;;;;4.27;100.00;99518.00;5027092;28;20034;-62
2022/10/04 01:21:25;;;;;;;7.93;3.65;;;;;;;4.23;100.00;99505.03;5028006;28;20025;-61
2022/10/04 01:23:56;;;;;;;6.85;3.70;;;;;;;4.24;100.00;99528.97;5030572;28;20446;-61
2022/10/04 01:26:33;;;;;;;12.55;3.53;;;;;;;4.23;100.00;99524.63;5028551;28;20032;-64
2022/10/04 01:29:04;;;;;;;7.78;4.22;;;;;;;4.30;100.00;99517.69;5033647;28;20079;-64
2022/10/04 01:31:32;;;;;;;4.95;3.17;;;;;;;4.27;100.00;99525.16;5031129;28;20028;-62
2022/10/04 01:33:59;;;;;;;6.57;3.45;;;;;;;4.26;100.00;99510.09;5027070;28;20099;-64
2022/10/04 01:36:29;;;;;;;6.32;3.17;;;;;;;4.15;100.00;99500.41;5029734;28;20029;-64
2022/10/04 01:38:55;;;;;;;7.05;3.65;;;;;;;4.30;100.00;99503.47;5033611;28;20483;-63
2022/10/04 01:41:29;;;;;;;8.60;3.67;;;;;;;4.33;100.00;99501.34;5039612;28;20029;-62
2022/10/04 01:43:59;;;;;;;10.63;3.90;;;;;;;4.28;100.00;99492.91;5023316;28;20026;-62
2022/10/04 01:46:30;;;;;;;8.02;3.97;;;;;;;4.29;100.00;99486.53;5026667;28;20389;-62
2022/10/04 01:48:59;;;;;;;7.60;3.72;;;;;;;4.26;100.00;99470.75;5022394;28;20485;-62
2022/10/04 01:51:30;;;;;;;7.65;3.53;;;;;;;4.24;100.00;99479.94;5029230;28;20034;-62
2022/10/04 01:54:04;;;;;;;8.10;3.75;;;;;;;4.23;100.00;99484.44;5028979;28;20087;-62
2022/10/04 01:56:42;;;;;;;7.55;3.20;;;;;;;4.21;100.00;99481.06;5030072;28;20036;-62
2022/10/04 01:59:18;;;;;;;15.27;3.53;;;;;;;4.21;100.00;99470.34;5025920;28;20025;-62
2022/10/04 02:01:57;;;;;;;8.27;3.70;;;;;;;4.18;100.00;99468.81;5028809;28;20112;-62
2022/10/04 02:04:28;;;;;;;6.85;3.35;;;;;;;4.20;100.00;99476.72;5032680;28;20321;-62
2022/10/04 02:06:57;;;;;;;5.75;3.55;;;;;;;4.05;100.00;99475.47;5026942;28;20041;-62
2022/10/04 02:09:30;;;;;;;5.25;3.22;;;;;;;3.88;100.00;99477.09;5039020;28;20024;-62
2022/10/04 02:11:58;;;;;;;7.28;3.30;;;;;;;3.86;100.00;99471.03;5033456;28;20091;-62
2022/10/04 02:14:32;;;;;;;5.22;2.92;;;;;;;3.74;100.00;99462.28;5021588;28;20392;-62
2022/10/04 02:17:00;;;;;;;5.70;3.00;;;;;;;3.66;100.00;99463.00;5030892;28;20025;-62
2022/10/04 02:19:35;;;;;;;5.75;3.70;;;;;;;3.65;100.00;99461.34;5023848;28;20076;-62
2022/10/04 02:22:06;;;;;;;10.63;3.63;;;;;;;3.64;100.00;99474.84;5029191;28;22969;-62
2022/10/04 02:24:39;;;;;;;6.22;3.78;;;;;;;3.63;100.00;99474.00;5029957;28;20027;-62
2022/10/04 02:27:05;;;;;;;5.22;3.22;;;;;;;3.62;100.00;99476.84;5020141;28;20028;-63
2022/10/04 02:29:31;;;;;;;5.65;3.65;;;;;;;3.63;100.00;99463.31;5024167;28;20033;-61
2022/10/04 02:34:42;;;;;;;8.40;3.33;;;;;;;3.62;100.00;99461.63;5024113;28;20512;-61
2022/10/04 02:37:08;;;;;;;3.95;2.80;;;;;;;3.50;100.00;99470.78;5040757;28;20025;-61
2022/10/04 02:39:44;;;;;;;3.50;2.67;;;;;;;3.49;100.00;99464.59;5031551;28;20469;-61
2022/10/04 02:42:24;;;;;;;4.03;2.85;;;;;;;3.51;100.00;99467.97;5033798;28;20032;-61
2022/10/04 02:45:00;;;;;;;4.30;2.80;;;;;;;3.47;100.00;99465.72;5025438;28;20038;-61
2022/10/04 02:47:32;;;;;;;4.50;2.85;;;;;;;3.51;100.00;99459.94;5030479;28;20032;-61
2022/10/04 02:50:05;;;;;;;3.20;2.50;;;;;;;3.55;100.00;99465.84;5023987;28;20094;-61
2022/10/04 02:52:38;;;;;;;3.78;2.60;;;;;;;3.58;100.00;99462.88;5014910;28;20518;-61
2022/10/04 02:55:15;;;;;;;4.25;2.78;;;;;;;3.59;100.00;99464.59;5027179;28;20071;-61
2022/10/04 02:57:42;;;;;;;5.30;3.42;;;;;;;3.66;100.00;99468.38;5018063;28;20022;-61
2022/10/04 03:00:17;;;;;;;4.60;3.08;;;;;;;3.62;100.00;99475.00;5025049;28;20464;-64
2022/10/04 03:03:17;;;;;;;4.25;3.08;;;;;;;3.61;100.00;99469.78;5027419;28;20033;-62
2022/10/04 03:05:52;;;;;;;7.47;2.92;;;;;;;3.74;100.00;99468.50;5042678;28;20152;-61
2022/10/04 03:08:17;;;;;;;9.20;4.45;;;;;;;3.87;100.00;99453.97;5027262;28;20473;-61
2022/10/04 03:10:43;;;;;;;8.02;3.33;;;;;;;3.92;100.00;99455.22;5029014;28;20040;-61
2022/10/04 03:13:12;;;;;;;4.57;3.15;;;;;;;3.83;100.00;99444.56;5038260;28;20259;-61
2022/10/04 03:15:38;;;;;;;4.05;2.92;;;;;;;3.78;100.00;99446.81;5041158;28;20168;-61
2022/10/04 03:18:04;;;;;;;8.88;3.10;;;;;;;3.76;100.00;99430.06;5026940;28;20053;-61
2022/10/04 03:20:30;;;;;;;4.50;3.15;;;;;;;3.81;100.00;99441.16;5028107;28;20053;-61
2022/10/04 03:22:56;;;;;;;6.00;3.95;;;;;;;3.78;100.00;99430.75;5026824;28;20037;-61
2022/10/04 03:25:50;;;;;;;9.20;4.72;;;;;;;3.70;100.00;99434.16;5028696;28;20021;-61
2022/10/04 03:28:16;;;;;;;8.38;4.68;;;;;;;3.68;100.00;99431.59;5019913;28;20370;-61
2022/10/04 03:30:46;;;;;;;9.27;4.55;;;;;;;3.64;100.00;99440.06;5028425;28;20029;-63
2022/10/04 03:33:18;;;;;;;16.45;4.75;;;;;;;3.58;100.00;99430.78;5023601;28;20083;-63
2022/10/04 03:36:37;;;;;;;22.42;4.20;;;;;;;3.58;100.00;99438.81;5028845;28;20029;-62
2022/10/04 03:39:08;;;;;;;7.65;3.95;;;;;;;3.48;100.00;99409.41;5054593;22;20088;-76
2022/10/04 03:41:37;;;;;;;8.15;3.90;;;;;;;3.51;100.00;99426.97;5034473;28;20042;-72
2022/10/04 03:44:03;;;;;;;5.95;3.65;;;;;;;3.42;100.00;99430.53;5035894;28;20002;-72
2022/10/04 03:46:28;;;;;;;5.15;3.35;;;;;;;3.30;100.00;99421.78;5027318;28;20105;-71
2022/10/04 03:48:56;;;;;;;6.03;3.88;;;;;;;3.25;100.00;99440.97;5034972;28;20034;-74
2022/10/04 03:51:24;;;;;;;6.47;3.80;;;;;;;3.36;100.00;99452.50;5030758;22;20498;-73
2022/10/04 03:53:56;;;;;;;8.53;4.17;;;;;;;3.37;100.00;99448.81;5016035;28;20052;-71
2022/10/04 03:56:26;;;;;;;7.65;4.03;;;;;;;3.62;100.00;99442.91;5015249;28;20040;-70
2022/10/04 03:58:52;;;;;;;7.70;3.40;;;;;;;3.48;100.00;99428.13;5014178;28;20030;-73
2022/10/04 04:01:29;;;;;;;7.05;3.85;;;;;;;3.48;100.00;99432.63;5019539;28;20049;-72
2022/10/04 04:04:01;;;;;;;7.00;4.07;;;;;;;3.54;100.00;99421.38;5011183;28;20042;-71
2022/10/04 04:06:40;;;;;;;9.43;4.57;;;;;;;3.40;100.00;99403.91;5028267;28;20021;-70
2022/10/04 04:09:07;;;;;;;8.88;5.72;;;;;;;3.65;100.00;99423.88;5045733;28;20032;-75
2022/10/04 04:11:34;;;;;;;12.73;4.10;;;;;;;3.53;100.00;99406.28;5014762;28;20072;-72
2022/10/04 04:14:07;;;;;;;7.57;3.90;;;;;;;3.54;100.00;99424.03;5014382;28;20036;-70
2022/10/04 04:16:35;;;;;;;6.53;4.00;;;;;;;3.56;100.00;99419.38;5008313;28;20037;-71
2022/10/04 04:19:04;;;;;;;7.65;5.15;;;;;;;3.45;100.00;99411.50;5015515;28;20117;-71
2022/10/04 04:21:30;;;;;;;8.93;5.80;;;;;;;3.33;100.00;99392.13;5011598;28;20053;-73
2022/10/04 04:24:01;;;;;;;14.30;5.00;;;;;;;3.36;100.00;99415.91;5002482;28;20030;-69
2022/10/04 04:26:33;;;;;;;14.77;4.35;;;;;;;3.41;100.00;99423.50;5009993;28;20030;-69
2022/10/04 04:29:27;;;;;;;8.30;3.35;;;;;;;3.43;100.00;99427.72;5011482;28;20049;-69
2022/10/04 04:31:59;;;;;;;7.10;3.60;;;;;;;3.28;100.00;99429.97;5013114;28;20022;-69
2022/10/04 04:34:32;;;;;;;7.20;3.70;;;;;;;3.21;100.00;99426.16;5025929;28;20064;-66
2022/10/04 04:37:00;;;;;;;8.18;3.75;;;;;;;3.22;100.00;99435.91;5006118;28;20022;-66
2022/10/04 04:39:33;;;;;;;6.22;3.15;;;;;;;3.26;100.00;99439.97;5013234;28;20049;-67
2022/10/04 04:42:09;;;;;;;6.95;3.72;;;;;;;3.32;100.00;99429.69;5005942;28;20061;-67
2022/10/04 04:44:36;;;;;;;7.20;3.83;;;;;;;3.40;100.00;99429.81;5024259;28;20054;-66
2022/10/04 04:47:08;;;;;;;6.10;3.90;;;;;;;3.36;100.00;99431.09;5009159;28;20026;-70
2022/10/04 04:49:38;;;;;;;7.93;4.45;;;;;;;3.33;100.00;99434.91;5003546;28;20041;-67
2022/10/04 04:52:04;;;;;;;8.77;4.72;;;;;;;3.28;100.00;99434.47;5001484;28;20022;-68
2022/10/04 04:54:30;;;;;;;9.48;4.72;;;;;;;3.21;100.00;99428.00;5004223;28;20034;-68
2022/10/04 04:56:56;;;;;;;8.27;4.22;;;;;;;3.27;100.00;99448.81;5003317;28;20084;-67
2022/10/04 04:59:22;;;;;;;9.02;4.40;;;;;;;3.06;100.00;99447.13;5003963;28;20025;-67
2022/10/04 05:01:49;;;;;;;7.13;3.13;;;;;;;3.10;100.00;99469.09;5003299;28;20053;-68
2022/10/04 05:04:20;;;;;;;8.88;3.60;;;;;;;3.12;100.00;99468.94;5007045;28;20023;-68
2022/10/04 05:07:08;;;;;;;7.80;5.15;;;;;;;3.04;100.00;99470.50;5000726;28;20025;-67
2022/10/04 05:09:39;;;;;;;13.48;6.70;;;;;;;3.06;100.00;99467.66;4988121;28;20387;-66
2022/10/04 05:12:23;;;;;;;5.72;3.80;;;;;;;3.08;100.00;99471.88;5022807;28;20761;-70
2022/10/04 05:14:51;;;;;;;10.88;4.88;;;;;;;3.17;100.00;99467.56;5007364;28;20061;-70
2022/10/04 05:17:23;;;;;;;11.85;5.32;;;;;;;3.35;100.00;99467.69;5007097;28;20494;-70
2022/10/04 05:19:51;;;;;;;11.05;5.80;;;;;;;3.32;100.00;99469.81;5003310;28;20033;-70
2022/10/04 05:22:20;;;;;;;13.75;5.47;;;;;;;3.27;100.00;99476.44;5001079;28;20030;-70
2022/10/04 05:24:49;;;;;;;9.70;5.57;;;;;;;3.19;100.00;99425.47;5001876;28;20037;-70
2022/10/04 05:27:44;;;;;;;;;;;;;;;3.40;100.00;99456.56;5003934;28;20541;-70
2022/10/04 05:30:51;;;;;;;7.18;4.22;;;;;;;3.39;100.00;99463.75;5008197;28;20675;-70
2022/10/04 05:33:39;;;;;;;7.55;4.18;;;;;;;3.39;100.00;99465.59;5010500;28;20030;-70
2022/10/04 05:36:12;;;;;;;7.55;3.45;;;;;;;3.45;100.00;99462.34;5020984;28;20391;-70
2022/10/04 05:38:46;;;;;;;7.10;3.85;;;;;;;3.56;100.00;99462.19;5007296;28;20029;-69
2022/10/04 05:41:51;;;;;;;10.90;4.70;;;;;;;3.76;100.00;99459.50;5002607;28;20102;-69
2022/10/04 05:44:25;;;;;;;9.82;5.30;;;;;;;3.86;100.00;99460.31;5007413;28;20045;-71
2022/10/04 05:46:53;;;;;;;12.50;7.10;;;;;;;3.91;100.00;99453.53;5004187;28;20030;-69
2022/10/04 05:49:21;;;;;;;11.30;5.95;;;;;;;3.98;100.00;99448.44;5010813;28;20534;-69
2022/10/04 05:51:58;;;;;;;10.05;6.07;;;;;;;4.03;100.00;99429.25;5007692;28;20427;-69
2022/10/04 05:54:27;;;;;;;9.65;5.15;;;;;;;4.18;100.00;99449.22;5006771;28;20479;-72
2022/10/04 05:57:30;;;;;;;10.00;5.23;;;;;;;4.29;100.00;99449.03;5004393;28;20040;-74
2022/10/04 06:00:16;;;;;;;9.80;4.65;;;;;;;4.21;100.00;99422.16;5023743;28;20041;-72
2022/10/04 06:03:06;;;;;;;9.90;5.13;;;;;;;4.56;100.00;99440.19;5020110;28;20034;-74
2022/10/04 06:05:59;;;;;;;9.02;4.90;;;;;;;4.68;100.00;99431.94;5024393;28;20025;-71
2022/10/04 06:09:02;;;;;;;7.18;4.30;;;;;;;4.74;100.00;99434.00;4995630;28;20048;-73
2022/10/04 06:11:30;;;;;;;8.30;3.75;;;;;;;4.82;100.00;99437.63;5004765;28;20018;-71
2022/10/04 06:14:22;;;;;;;6.18;3.65;;;;;;;5.12;100.00;99448.16;5020621;28;20542;-72
2022/10/04 06:17:27;;;;;;;6.05;4.05;;;;;;;4.91;100.00;99427.81;5000024;28;20165;-71
2022/10/04 06:20:13;;;;;;;6.25;3.88;;;;;;;5.20;100.00;99435.66;5004146;28;20030;-68
2022/10/04 06:22:55;;;;;;;10.80;3.50;;;;;;;5.18;100.00;99421.53;5005264;28;20076;-74
2022/10/04 06:25:30;;;;;;;7.75;3.40;;;;;;;5.03;100.00;99386.41;5012446;28;20026;-74
2022/10/04 06:28:16;;;;;;;5.13;3.20;;;;;;;5.51;100.00;99427.22;5008710;28;20026;-75
2022/10/04 06:31:14;;;;;;;6.47;3.83;;;;;;;5.76;100.00;99448.84;5002649;28;20022;-74
2022/10/04 06:33:45;;;;;;;7.18;3.15;;;;;;;5.73;100.00;99450.00;5020172;28;20030;-70
2022/10/04 06:36:33;;;;;;;8.60;3.90;;;;;;;5.93;100.00;99446.16;5003363;28;20033;-71
2022/10/04 06:39:10;;;;;;;10.85;3.58;;;;;;;5.92;100.00;99424.78;5004039;28;20510;-72
2022/10/04 06:42:00;;;;;;;6.45;3.33;;;;;;;6.06;100.00;99440.38;5000347;28;20022;-69
2022/10/04 06:44:36;;;;;;;6.20;3.17;;;;;;;5.93;100.00;99427.38;5011348;28;20063;-78
2022/10/04 06:47:14;;;;;;;7.38;3.40;;;;;;;6.23;100.00;99444.00;5010776;28;20519;-76
2022/10/04 06:50:01;;;;;;;4.68;2.90;;;;;;;6.38;100.00;99456.84;5006989;28;20467;-76
2022/10/04 06:52:45;;;;;;;6.00;3.08;;;;;;;6.53;100.00;99457.94;5023308;28;20492;-76
2022/10/04 06:55:30;;;;;;;5.07;3.05;;;;;;;6.51;100.00;99455.38;5007954;28;20033;-77
2022/10/04 06:58:34;;;;;;;6.05;2.90;;;;;;;6.69;100.00;99457.16;5005843;28;20569;-76
2022/10/04 07:01:22;;;;;;;9.63;3.63;;;;;;;6.88;100.00;99451.47;5005000;28;20038;-76
2022/10/04 07:03:56;;;;;;;9.00;3.92;;;;;;;6.96;100.00;99435.38;5005682;28;20060;-77
2022/10/04 07:06:32;;;;;;;7.68;3.50;;;;;;;7.05;100.00;99438.94;5009815;28;20030;-74
2022/10/04 07:09:04;;;;;;;9.85;3.85;;;;;;;7.04;100.00;99448.00;5009472;28;20030;-75
2022/10/04 07:12:07;;;;;;;5.15;3.00;;;;;;;7.01;100.00;99446.47;5001052;28;20022;-67
2022/10/04 07:14:43;;;;;;;7.72;3.42;;;;;;;7.24;100.00;99443.16;4932404;29;20027;-68
2022/10/04 07:17:13;;;;;;;5.57;2.78;;;;;;;7.56;100.00;99446.88;5003980;28;20042;-69
2022/10/04 07:19:44;;;;;;;9.25;2.88;;;;;;;7.61;100.00;99450.75;5006071;28;20088;-70
2022/10/04 07:22:29;;;;;;;6.88;2.97;;;;;;;7.75;100.00;99437.63;5011194;28;20032;-73
2022/10/04 07:25:17;;;;;;;6.30;2.80;;;;;;;8.06;100.00;99462.84;5009968;28;20037;-72
2022/10/04 07:31:12;;;;;;;4.28;2.88;;;;;;;7.67;100.00;99439.28;4974237;28;20044;-73
2022/10/04 07:33:52;;;;;;;7.38;2.72;;;;;;;7.89;100.00;99418.09;4997505;28;20137;-74
2022/10/04 07:36:24;;;;;;;7.38;3.25;;;;;;;7.95;100.00;99454.28;4999717;28;20033;-72
2022/10/04 07:38:53;;;;;;;13.25;2.97;;;;;;;8.15;100.00;99438.56;5009843;28;20112;-73
2022/10/04 07:41:28;;;;;;;8.65;3.58;;;;;;;8.16;100.00;99432.16;5006638;28;20034;-73
2022/10/04 07:44:05;;;;;;;6.82;3.33;;;;;;;8.58;100.00;99436.44;5011015;28;20022;-69
2022/10/04 07:46:59;;;;;;;7.10;3.17;;;;;;;8.60;100.00;99439.81;5001851;28;20030;-69
2022/10/04 07:49:25;;;;;;;5.18;3.28;;;;;;;8.96;100.00;99429.31;5009358;28;20116;-71
2022/10/04 07:51:50;;;;;;;7.82;3.80;;;;;;;9.90;100.00;99443.47;5004114;28;20023;-72
2022/10/04 07:54:32;;;;;;;5.32;3.70;;;;;;;11.14;100.00;99441.88;5006991;28;20022;-72
2022/10/04 07:57:02;;;;;;;5.15;3.10;;;;;;;12.08;100.00;99408.34;5005575;28;20143;-72
2022/10/04 07:59:56;;;;;;;5.97;2.95;;;;;;;12.26;100.00;99418.66;4999224;28;20412;-72
2022/10/04 08:02:40;;;;;;;6.28;3.00;;;;;;;12.82;100.00;99434.03;5003162;28;20037;-73
2022/10/04 08:05:11;;;;;;;6.88;2.75;;;;;;;12.82;100.00;99429.41;5011800;28;20573;-73
2022/10/04 08:07:45;;;;;;;6.47;2.20;;;;;;;13.61;100.00;99432.59;5007624;28;20454;-73
2022/10/04 08:10:22;;;;;;;4.70;2.63;;;;;;;14.84;100.00;99432.88;5012766;28;20022;-73
2022/10/04 08:13:19;;;;;;;6.40;2.85;;;;;;;14.43;100.00;99425.81;5017578;28;20080;-68
2022/10/04 08:15:45;;;;;;;8.20;2.90;;;;;;;14.95;99.29;99410.38;4999250;28;20042;-70
2022/10/04 08:18:42;;;;;;;5.82;2.15;;;;;;;15.18;96.79;99422.66;4999026;28;20972;-71
2022/10/04 08:21:15;;;;;;;5.32;2.20;;;;;;;14.45;100.00;99438.19;5028243;28;20022;-69
2022/10/04 08:23:46;;;;;;;11.05;2.45;;;;;;;16.06;95.46;99430.84;5012766;28;20028;-69
2022/10/04 08:26:20;;;;;;;5.25;2.30;;;;;;;16.02;89.08;99429.63;5015547;28;20095;-69
2022/10/04 08:32:07;;;;;;;8.32;2.38;;;;;;;18.13;74.09;99418.06;4998714;28;20535;-69
2022/10/04 08:34:51;;;;;;;4.57;2.50;;;;;;;20.09;66.53;99408.81;5015308;28;20132;-69
2022/10/04 08:37:45;;;;;;;6.72;2.08;;;;;;;21.72;62.54;99422.16;5017808;28;20392;-69
2022/10/04 08:40:32;;;;;;;6.10;1.60;;;;;;;22.29;57.73;99419.63;5014414;28;20091;-70
2022/10/04 08:43:12;;;;;;;10.25;2.10;;;;;;;21.63;58.89;99424.56;5026166;28;20025;-70
2022/10/04 08:45:56;;;;;;;9.95;2.00;;;;;;;21.72;57.83;99430.44;5009724;28;20026;-70
2022/10/04 08:48:45;;;;;;;7.90;1.58;;;;;;;22.48;56.13;99424.75;5031249;28;20026;-70
2022/10/04 08:51:49;;;;;;;7.53;2.00;;;;;;;22.41;54.84;99416.69;5016415;28;20091;-72
2022/10/04 08:54:55;;;;;;;8.20;1.80;;;;;;;23.59;51.95;99419.94;5028680;28;20303;-70
2022/10/04 08:57:39;;;;;;;6.85;1.85;;;;;;;25.45;46.95;99420.16;5013083;28;20022;-70
2022/10/04 09:00:20;;;;;;;6.25;2.05;;;;;;;24.58;45.33;99412.22;5012272;28;20030;-70
2022/10/04 09:03:04;;;;;;;4.03;1.80;;;;;;;24.82;46.03;99417.13;5028632;28;20034;-70
2022/10/04 09:05:39;;;;;;;7.88;1.67;;;;;;;24.67;45.54;99418.81;5021439;28;20695;-69
2022/10/04 09:08:29;;;;;;;5.45;1.27;;;;;;;23.79;45.27;99417.25;5010182;28;20037;-69
2022/10/04 09:11:31;;;;;;;4.05;1.00;;;;;;;22.73;47.29;99405.56;5023537;28;20033;-70
2022/10/04 09:14:22;;;;;;;3.33;1.10;;;;;;;22.25;49.80;99407.50;5009061;28;20051;-69
2022/10/04 09:17:01;;;;;;;6.13;1.27;;;;;;;21.00;51.66;99377.38;5022967;28;20128;-76
2022/10/04 09:19:38;;;;;;;6.20;1.92;;;;;;;21.81;50.89;99401.34;5022591;28;20369;-71
2022/10/04 09:22:20;;;;;;;3.30;1.25;;;;;;;21.98;50.86;99391.00;5029863;28;20030;-77
2022/10/04 09:25:11;;;;;;;3.08;1.30;;;;;;;23.27;48.22;99387.84;5008104;28;20026;-72
2022/10/04 09:27:48;;;;;;;4.97;1.60;;;;;;;22.53;49.50;99386.13;5005623;28;20117;-73
2022/10/04 09:30:19;;;;;;;7.05;1.70;;;;;;;22.86;50.01;99373.06;5012610;28;20076;-73
2022/10/04 09:33:03;;;;;;;5.85;1.70;;;;;;;23.79;48.60;99388.78;5012733;28;20026;-63
2022/10/04 09:35:50;;;;;;;6.40;1.30;;;;;;;22.95;49.15;99394.34;5000859;28;20026;-64
2022/10/04 09:38:30;;;;;;;4.10;1.50;;;;;;;22.74;48.63;99400.84;5011001;28;20041;-64
2022/10/04 09:41:09;;;;;;;6.40;1.40;;;;;;;22.47;50.34;99403.75;5002336;28;20034;-64
2022/10/04 09:43:57;;;;;;;6.82;1.70;;;;;;;21.93;50.27;99399.25;5006589;28;20036;-64
2022/10/04 09:46:41;;;;;;;5.72;1.55;;;;;;;20.87;52.61;99399.78;5013338;28;20045;-64
2022/10/04 09:49:07;;;;;;;3.58;1.55;;;;;;;21.01;52.61;99401.03;5005277;28;20643;-64
2022/10/04 09:52:11;;;;;;;4.60;1.35;;;;;;;22.62;49.65;99394.75;5041709;22;20046;-67
2022/10/04 09:55:04;;;;;;;4.63;1.70;;;;;;;21.73;50.75;99396.31;5009793;28;20065;-68
2022/10/04 09:57:43;;;;;;;3.90;1.20;;;;;;;22.58;49.28;99399.13;5008885;28;20029;-68
2022/10/04 10:00:22;;;;;;;4.60;1.50;;;;;;;23.48;47.01;99388.72;5012521;28;20430;-69
2022/10/04 10:03:11;;;;;;;5.18;1.98;;;;;;;22.81;48.01;99398.69;5006790;28;20309;-69
2022/10/04 10:05:48;;;;;;;3.08;1.08;;;;;;;24.47;44.65;99389.28;5003214;28;20045;-66
2022/10/04 10:08:24;;;;;;;5.28;1.40;;;;;;;25.13;43.71;99377.09;5008692;28;20041;-68
2022/10/04 10:14:17;;;;;;;8.13;1.30;;;;;;;23.24;47.02;99399.44;5002647;28;20121;-66
2022/10/04 10:17:07;;;;;;;3.75;1.20;;;;;;;22.81;48.31;99393.16;5012220;28;20450;-65
2022/10/04 10:19:44;;;;;;;7.80;1.40;;;;;;;23.54;46.25;99387.59;5011367;28;20025;-66
2022/10/04 10:22:32;;;;;;;4.45;1.45;;;;;;;23.39;46.79;99388.41;5012295;28;20084;-65
2022/10/04 10:25:37;;;;;;;4.95;1.33;;;;;;;23.12;47.61;99398.84;5010091;28;20451;-66
2022/10/04 10:28:05;;;;;;;5.45;1.45;;;;;;;22.93;47.72;99398.47;5022938;28;20510;-65
2022/10/04 10:30:46;;;;;;;3.90;1.50;;;;;;;22.83;47.88;99396.50;5011114;28;20026;-66
2022/10/04 10:33:28;;;;;;;5.28;1.35;;;;;;;24.49;45.51;99386.22;5021286;28;20907;-65
2022/10/04 10:36:03;;;;;;;5.30;1.27;;;;;;;24.90;45.01;99389.66;5011940;28;20013;-76
2022/10/04 10:39:01;;;;;;;3.45;1.13;;;;;;;24.68;45.29;99386.41;5012969;28;20026;-76
2022/10/04 10:41:50;;;;;;;4.47;1.27;;;;;;;25.04;44.99;99386.28;5010371;28;20026;-72
2022/10/04 10:44:28;;;;;;;4.80;1.45;;;;;;;25.24;44.29;99382.63;5010943;28;20069;-72
2022/10/04 10:47:07;;;;;;;5.20;1.42;;;;;;;25.27;44.23;99384.81;4997776;28;20357;-73
2022/10/04 10:49:51;;;;;;;2.50;1.08;;;;;;;24.89;44.88;99378.91;5011393;28;20045;-76
2022/10/04 10:52:41;;;;;;;5.30;1.40;;;;;;;25.64;43.79;99377.91;5013212;28;20065;-76
2022/10/04 10:55:28;;;;;;;3.45;1.35;;;;;;;24.59;46.23;99377.06;5007823;28;20495;-72
2022/10/04 10:58:12;;;;;;;4.78;1.60;;;;;;;26.50;43.16;99378.25;5015659;28;20528;-79
2022/10/04 11:00:59;;;;;;;3.63;1.10;;;;;;;26.13;42.09;99382.53;5009976;28;20030;-78
2022/10/04 11:03:52;;;;;;;3.03;1.20;;;;;;;25.97;43.56;99374.34;5025528;28;20083;-79
2022/10/04 11:06:52;;;;;;;5.97;1.20;;;;;;;26.91;41.94;99355.56;5014236;28;20464;-78
2022/10/04 11:09:24;;;;;;;3.13;0.98;;;;;;;25.64;42.23;99366.81;5023857;28;20030;-78
2022/10/04 11:12:23;;;;;;;5.22;1.17;;;;;;;25.96;41.88;99350.50;5016520;28;20041;-78
2022/10/04 11:15:05;;;;;;;2.88;1.00;;;;;;;25.41;42.09;99360.06;5013813;28;20029;-79
2022/10/04 11:17:55;;;;;;;8.15;1.23;;;;;;;25.71;42.18;99361.78;5008056;28;20053;-79
2022/10/04 11:20:45;;;;;;;5.53;1.10;;;;;;;25.16;42.89;99361.88;5031116;28;20058;-78
2022/10/04 11:23:36;;;;;;;2.80;1.05;;;;;;;26.49;41.38;99351.59;5028824;28;20029;-78
2022/10/04 11:26:57;;;;;;;4.78;1.13;;;;;;;27.34;39.24;99338.88;5031250;28;20514;-79
2022/10/04 11:29:50;;;;;;;5.25;1.23;;;;;;;27.24;42.27;99335.13;4964459;28;20093;-78
2022/10/04 11:32:55;;;;;;;3.28;1.20;;;;;;;28.88;37.00;99315.50;5039213;28;20034;-78
2022/10/04 11:35:29;;;;;;;4.60;1.10;;;;;;;26.55;40.22;99329.09;5020481;28;20037;-78
2022/10/04 11:38:26;;;;;;;5.72;1.10;;;;;;;25.14;42.20;99323.38;5020878;28;20010;-76
2022/10/04 11:41:16;;;;;;;4.18;1.20;;;;;;;24.59;43.07;99327.25;5015527;28;20018;-78
2022/10/04 11:44:30;;;;;;;5.45;1.20;;;;;;;25.24;42.11;99319.75;5014641;28;20113;-77
2022/10/04 11:47:11;;;;;;;6.43;1.50;;;;;;;27.18;38.28;99319.66;5009961;28;20156;-77
2022/10/04 11:49:55;;;;;;;3.22;1.30;;;;;;;26.29;40.03;99314.66;5029766;28;20092;-77
2022/10/04 11:52:48;;;;;;;3.38;1.05;;;;;;;26.33;40.85;99315.75;5008864;28;20045;-77
2022/10/04 11:55:52;;;;;;;4.40;1.08;;;;;;;26.26;39.39;99303.34;5013342;28;20029;-77
2022/10/04 11:58:47;;;;;;;2.58;1.05;;;;;;;24.92;41.93;99306.34;5032026;28;20076;-77
2022/10/04 12:01:39;;;;;;;4.63;1.00;;;;;;;24.64;42.76;99292.09;5014317;28;20021;-76
2022/10/04 12:04:41;;;;;;;4.90;1.30;;;;;;;24.76;42.10;99304.75;5015830;28;20058;-78
2022/10/04 12:07:32;;;;;;;4.45;1.10;;;;;;;25.11;41.32;99304.56;5014653;28;20080;-76
2022/10/04 12:10:15;;;;;;;4.72;1.30;;;;;;;25.38;41.18;99297.75;5012265;28;20509;-77
2022/10/04 12:12:53;;;;;;;2.33;1.00;;;;;;;25.39;40.82;99310.50;5021413;28;20040;-76
2022/10/04 12:15:44;;;;;;;89.78;7.22;;;;;;;25.28;40.73;99286.75;5030657;28;20026;-77
2022/10/04 12:18:28;;;;;;;5.15;1.42;;;;;;;25.46;41.53;99310.97;5013349;28;20475;-77
2022/10/04 12:21:01;;;;;;;4.18;1.10;;;;;;;24.92;42.03;99295.28;5014229;28;20736;-77
2022/10/04 12:23:48;;;;;;;2.35;0.98;;;;;;;25.09;42.29;99286.59;5004015;28;20376;-77
2022/10/04 12:26:31;;;;;;;18.17;2.20;;;;;;;25.34;42.11;99296.69;5013363;28;20052;-77
2022/10/04 12:29:35;;;;;;;2.38;1.10;;;;;;;25.66;41.96;99285.06;5025191;28;20087;-77
2022/10/04 12:32:27;;;;;;;4.60;1.10;;;;;;;24.89;42.09;99287.56;5029909;28;20026;-77
2022/10/04 12:35:11;;;;;;;3.60;1.15;;;;;;;26.96;39.38;99261.94;5015941;28;20124;-78
2022/10/04 12:38:00;;;;;;;2.85;1.00;;;;;;;27.35;38.75;99273.84;5029697;28;20036;-77
2022/10/04 12:40:28;;;;;;;;;;;;;;;27.93;37.73;99284.56;5030460;28;20033;-77
2022/10/04 12:43:13;;;;;;;4.45;0.90;;;;;;;27.56;38.65;99263.22;5040712;28;19913;-78